createdAt,value
2019-03-05T00:03:25.781Z,2.30
2019-03-05T00:05:52.997Z,2.08
2019-03-05T00:08:20.174Z,2.08
2019-03-05T00:10:47.346Z,1.82
2019-03-05T00:13:14.548Z,2.33
2019-03-05T00:15:42.197Z,1.57
2019-03-05T00:18:09.365Z,2.70
2019-03-05T00:20:36.550Z,1.57
2019-03-05T00:23:03.731Z,1.50
2019-03-05T00:25:32.568Z,1.75
2019-03-05T00:28:13.330Z,2.20
2019-03-05T00:30:51.605Z,2.12
2019-03-05T00:33:38.877Z,1.72
2019-03-05T00:36:07.697Z,1.95
2019-03-05T00:38:36.525Z,2.05
2019-03-05T00:41:05.334Z,1.45
2019-03-05T00:43:43.042Z,1.52
2019-03-05T00:46:17.849Z,1.62
2019-03-05T00:48:49.095Z,1.77
2019-03-05T00:51:24.964Z,1.37
2019-03-05T00:53:51.159Z,1.50
2019-03-05T00:56:28.860Z,1.67
2019-03-05T00:59:12.757Z,2.12
2019-03-05T01:01:41.584Z,1.50
2019-03-05T01:04:10.389Z,1.92
2019-03-05T01:06:37.654Z,1.80
2019-03-05T01:09:06.748Z,2.17
2019-03-05T01:11:34.040Z,2.27
2019-03-05T01:14:01.494Z,1.67
2019-03-05T01:16:30.329Z,1.75
2019-03-05T01:18:57.520Z,1.85
2019-03-05T01:21:24.697Z,1.55
2019-03-05T01:23:51.865Z,2.12
2019-03-05T01:26:19.069Z,1.70
2019-03-05T01:28:46.303Z,1.05
2019-03-05T01:31:31.779Z,1.62
2019-03-05T01:34:00.610Z,1.60
2019-03-05T01:36:29.416Z,1.30
2019-03-05T01:39:07.121Z,1.57
2019-03-05T01:41:34.389Z,1.37
2019-03-05T01:44:01.647Z,2.00
2019-03-05T01:46:28.839Z,1.57
2019-03-05T01:48:56.023Z,1.55
2019-03-05T01:51:23.270Z,1.20
2019-03-05T01:53:50.450Z,1.20
2019-03-05T01:56:17.646Z,1.42
2019-03-05T01:58:44.825Z,1.40
2019-03-05T02:01:11.998Z,1.00
2019-03-05T02:03:39.270Z,1.32
2019-03-05T02:06:06.451Z,1.25
2019-03-05T02:08:33.627Z,1.72
2019-03-05T02:11:00.885Z,1.80
2019-03-05T02:13:28.204Z,1.55
2019-03-05T02:15:55.399Z,1.40
2019-03-05T02:18:24.217Z,1.77
2019-03-05T02:20:51.406Z,1.52
2019-03-05T02:23:20.302Z,1.40
2019-03-05T02:25:49.123Z,1.77
2019-03-05T02:28:32.893Z,1.85
2019-03-05T02:31:17.005Z,1.70
2019-03-05T02:33:48.740Z,1.92
2019-03-05T02:36:34.461Z,1.53
2019-03-05T02:39:15.304Z,1.52
2019-03-05T02:41:44.124Z,1.02
2019-03-05T02:44:15.859Z,1.05
2019-03-05T02:46:59.917Z,1.40
2019-03-05T02:49:28.721Z,1.02
2019-03-05T02:52:03.264Z,1.32
2019-03-05T02:54:37.895Z,1.10
2019-03-05T02:57:07.766Z,0.80
2019-03-05T02:59:35.304Z,1.40
2019-03-05T03:02:06.671Z,0.85
2019-03-05T03:04:37.914Z,0.88
2019-03-05T03:07:05.106Z,1.42
2019-03-05T03:09:33.915Z,1.25
2019-03-05T03:12:01.115Z,1.72
2019-03-05T03:14:28.392Z,1.20
2019-03-05T03:16:55.592Z,1.45
2019-03-05T03:19:22.777Z,0.88
2019-03-05T03:21:49.962Z,1.30
2019-03-05T03:24:17.141Z,0.88
2019-03-05T03:26:44.343Z,0.53
2019-03-05T03:29:11.512Z,0.98
2019-03-05T03:31:38.717Z,0.78
2019-03-05T03:34:05.970Z,1.15
2019-03-05T03:36:33.215Z,1.37
2019-03-05T03:39:00.399Z,0.95
2019-03-05T03:41:27.581Z,1.17
2019-03-05T03:43:54.852Z,1.50
2019-03-05T03:46:22.041Z,1.30
2019-03-05T03:48:49.282Z,1.10
2019-03-05T03:51:16.590Z,1.37
2019-03-05T03:53:43.788Z,1.70
2019-03-05T03:56:11.045Z,1.70
2019-03-05T03:58:38.236Z,2.02
2019-03-05T04:01:07.307Z,1.80
2019-03-05T04:03:34.860Z,1.47
2019-03-05T04:06:02.310Z,1.60
2019-03-05T04:08:29.541Z,2.08
2019-03-05T04:10:56.766Z,1.72
2019-03-05T04:13:23.957Z,1.50
2019-03-05T04:15:51.225Z,2.12
2019-03-05T04:18:18.551Z,1.60
2019-03-05T04:20:47.407Z,2.52
2019-03-05T04:23:14.595Z,1.62
2019-03-05T04:25:41.791Z,1.62
2019-03-05T04:28:08.964Z,1.80
2019-03-05T04:30:38.334Z,2.05
2019-03-05T04:33:05.502Z,1.00
2019-03-05T04:35:32.688Z,1.87
2019-03-05T04:37:59.887Z,1.57
2019-03-05T04:40:27.108Z,1.92
2019-03-05T04:42:54.277Z,2.52
2019-03-05T04:45:27.903Z,1.67
2019-03-05T04:47:55.103Z,1.90
2019-03-05T04:50:23.981Z,2.25
2019-03-05T04:52:51.264Z,2.00
2019-03-05T04:55:18.435Z,2.35
2019-03-05T04:57:45.619Z,2.17
2019-03-05T05:00:13.250Z,2.30
2019-03-05T05:02:40.448Z,2.25
2019-03-05T05:05:07.640Z,2.08
2019-03-05T05:07:34.832Z,2.92
2019-03-05T05:10:01.999Z,2.92
2019-03-05T05:12:29.512Z,2.85
2019-03-05T05:14:56.653Z,3.87
2019-03-05T05:17:23.857Z,3.83
2019-03-05T05:19:51.118Z,3.55
2019-03-05T05:22:18.303Z,2.92
2019-03-05T05:24:45.516Z,3.83
2019-03-05T05:27:12.768Z,3.30
2019-03-05T05:29:39.968Z,4.62
2019-03-05T05:32:07.153Z,3.05
2019-03-05T05:34:34.350Z,3.42
2019-03-05T05:37:01.524Z,3.47
2019-03-05T05:39:46.706Z,2.67
2019-03-05T05:42:13.893Z,1.47
2019-03-05T05:44:41.074Z,1.30
2019-03-05T05:47:08.261Z,2.83
2019-03-05T05:49:35.451Z,2.58
2019-03-05T05:52:02.666Z,2.98
2019-03-05T05:54:29.896Z,2.80
2019-03-05T05:56:57.262Z,4.08
2019-03-05T05:59:24.456Z,3.92
2019-03-05T06:01:51.652Z,2.77
2019-03-05T06:04:18.850Z,3.77
2019-03-05T06:06:46.020Z,3.80
2019-03-05T06:09:13.282Z,3.35
2019-03-05T06:11:40.459Z,3.70
2019-03-05T06:14:07.655Z,3.87
2019-03-05T06:16:34.953Z,3.05
2019-03-05T06:19:02.160Z,3.92
2019-03-05T06:21:29.355Z,3.42
2019-03-05T06:23:56.536Z,3.35
2019-03-05T06:26:23.749Z,3.52
2019-03-05T06:28:50.984Z,3.58
2019-03-05T06:31:18.533Z,2.65
2019-03-05T06:33:45.755Z,3.75
2019-03-05T06:36:12.946Z,3.70
2019-03-05T06:38:40.134Z,3.10
2019-03-05T06:41:07.302Z,2.95
2019-03-05T06:43:34.498Z,3.70
2019-03-05T06:46:01.804Z,3.50
2019-03-05T06:48:29.001Z,3.08
2019-03-05T06:50:56.170Z,3.47
2019-03-05T06:53:23.374Z,4.00
2019-03-05T06:55:50.552Z,4.00
2019-03-05T06:58:17.800Z,4.53
2019-03-05T07:00:45.470Z,3.45
2019-03-05T07:03:12.675Z,4.42
2019-03-05T07:05:57.935Z,4.37
2019-03-05T07:08:25.117Z,3.70
2019-03-05T07:11:03.125Z,3.90
2019-03-05T07:13:31.590Z,3.67
2019-03-05T07:16:00.757Z,4.05
2019-03-05T07:18:29.834Z,3.37
2019-03-05T07:20:58.625Z,4.00
2019-03-05T07:23:43.213Z,3.65
2019-03-05T07:26:10.550Z,4.28
2019-03-05T07:28:37.743Z,3.12
2019-03-05T07:31:04.910Z,3.83
2019-03-05T07:33:32.147Z,3.22
2019-03-05T07:35:59.318Z,3.72
2019-03-05T07:38:26.483Z,3.77
2019-03-05T07:40:53.686Z,3.50
2019-03-05T07:43:20.897Z,3.42
2019-03-05T07:45:48.372Z,3.65
2019-03-05T07:48:15.580Z,3.33
2019-03-05T07:50:44.428Z,3.62
2019-03-05T07:53:21.866Z,3.45
2019-03-05T07:55:48.133Z,2.77
2019-03-05T07:58:15.310Z,2.90
2019-03-05T08:00:42.503Z,3.22
2019-03-05T08:03:09.679Z,2.98
2019-03-05T08:05:37.010Z,3.20
2019-03-05T08:08:26.687Z,3.60
2019-03-05T08:10:51.363Z,3.33
2019-03-05T08:13:20.159Z,2.90
2019-03-05T08:16:02.725Z,3.80
2019-03-05T08:18:28.508Z,3.40
2019-03-05T08:20:55.707Z,3.87
2019-03-05T08:23:22.877Z,5.03
2019-03-05T08:25:50.171Z,4.78
2019-03-05T08:28:17.357Z,4.17
2019-03-05T08:30:44.837Z,4.97
2019-03-05T08:33:12.016Z,5.25
2019-03-05T08:35:40.481Z,5.58
2019-03-05T08:38:07.670Z,4.92
2019-03-05T08:40:34.952Z,5.70
2019-03-05T08:43:02.146Z,5.25
2019-03-05T08:45:29.856Z,5.05
2019-03-05T08:47:57.389Z,5.55
2019-03-05T08:50:24.874Z,6.30
2019-03-05T08:52:52.084Z,4.97
2019-03-05T08:55:19.259Z,5.40
2019-03-05T08:57:46.435Z,6.00
2019-03-05T09:00:17.770Z,5.28
2019-03-05T09:02:48.683Z,6.33
2019-03-05T09:05:14.757Z,6.12
2019-03-05T09:07:41.947Z,5.58
2019-03-05T09:10:10.763Z,6.12
2019-03-05T09:12:38.084Z,5.30
2019-03-05T09:15:15.624Z,4.53
2019-03-05T09:17:42.875Z,5.60
2019-03-05T09:20:14.059Z,5.30
2019-03-05T09:22:41.248Z,5.60
2019-03-05T09:25:10.231Z,4.92
2019-03-05T09:27:37.462Z,4.70
2019-03-05T09:30:06.273Z,5.53
2019-03-05T09:32:33.460Z,4.45
2019-03-05T09:35:00.656Z,4.40
2019-03-05T09:37:27.851Z,4.37
2019-03-05T09:39:55.019Z,3.65
2019-03-05T09:42:22.239Z,3.95
2019-03-05T09:44:49.417Z,3.37
2019-03-05T09:47:16.606Z,3.30
2019-03-05T09:49:43.769Z,3.92
2019-03-05T09:52:11.033Z,3.98
2019-03-05T09:54:38.208Z,3.98
2019-03-05T09:57:05.403Z,3.90
2019-03-05T09:59:32.571Z,3.90
2019-03-05T10:01:59.757Z,4.10
2019-03-05T10:04:26.954Z,4.30
2019-03-05T10:06:54.139Z,3.75
2019-03-05T10:09:21.335Z,3.17
2019-03-05T10:11:48.511Z,3.75
2019-03-05T10:14:15.699Z,3.47
2019-03-05T10:16:42.886Z,3.08
2019-03-05T10:19:10.087Z,3.33
2019-03-05T10:21:45.753Z,2.83
2019-03-05T10:24:10.570Z,3.77
2019-03-05T10:26:35.096Z,3.60
2019-03-05T10:29:02.292Z,2.90
2019-03-05T10:31:29.478Z,3.33
2019-03-05T10:33:56.646Z,2.37
2019-03-05T10:36:23.836Z,2.92
2019-03-05T10:38:57.395Z,2.98
2019-03-05T10:41:19.933Z,3.17
2019-03-05T10:43:47.115Z,3.10
2019-03-05T10:46:14.325Z,3.15
2019-03-05T10:48:41.485Z,2.40
2019-03-05T10:51:08.654Z,2.50
2019-03-05T10:53:35.858Z,2.30
2019-03-05T10:56:03.053Z,2.95
2019-03-05T10:58:34.287Z,2.37
2019-03-05T11:00:59.705Z,2.37
2019-03-05T11:03:28.760Z,2.67
2019-03-05T11:05:55.938Z,2.58
2019-03-05T11:08:24.577Z,2.33
2019-03-05T11:10:52.091Z,2.05
2019-03-05T11:13:19.290Z,2.00
2019-03-05T11:15:47.433Z,2.35
2019-03-05T11:18:15.144Z,1.85
2019-03-05T11:20:42.547Z,1.72
2019-03-05T11:23:11.598Z,2.05
2019-03-05T11:25:38.658Z,2.45
2019-03-05T11:28:05.813Z,1.60
2019-03-05T11:30:36.307Z,2.37
2019-03-05T11:33:02.598Z,1.85
2019-03-05T11:35:30.432Z,1.87
2019-03-05T11:37:57.610Z,1.82
2019-03-05T11:40:24.818Z,2.02
2019-03-05T11:42:51.978Z,2.55
2019-03-05T11:45:26.006Z,2.70
2019-03-05T11:47:53.192Z,2.30
2019-03-05T11:50:20.465Z,1.67
2019-03-05T11:52:47.634Z,1.70
2019-03-05T11:55:16.451Z,2.17
2019-03-05T11:57:43.910Z,1.75
2019-03-05T12:00:13.130Z,1.70
2019-03-05T12:02:40.296Z,1.90
2019-03-05T12:05:09.120Z,1.65
2019-03-05T12:07:36.288Z,1.57
2019-03-05T12:10:05.310Z,1.60
2019-03-05T12:12:32.688Z,1.62
2019-03-05T12:14:59.865Z,2.00
2019-03-05T12:17:27.303Z,1.70
2019-03-05T12:19:54.491Z,2.20
2019-03-05T12:22:21.674Z,1.40
2019-03-05T12:24:48.868Z,1.98
2019-03-05T12:27:16.037Z,1.75
2019-03-05T12:29:43.226Z,1.35
2019-03-05T12:32:10.398Z,1.20
2019-03-05T12:34:37.588Z,1.30
2019-03-05T12:37:04.782Z,1.17
2019-03-05T12:39:32.029Z,1.00
2019-03-05T12:41:59.223Z,1.20
2019-03-05T12:44:26.398Z,1.40
2019-03-05T12:46:53.601Z,1.60
2019-03-05T12:49:20.773Z,1.75
2019-03-05T12:51:48.210Z,1.32
2019-03-05T12:54:15.375Z,0.93
2019-03-05T12:56:42.665Z,1.47
2019-03-05T12:59:10.040Z,1.42
2019-03-05T13:01:37.207Z,1.07
2019-03-05T13:04:04.432Z,1.30
2019-03-05T13:06:31.689Z,1.45
2019-03-05T13:08:58.915Z,1.40
2019-03-05T13:11:26.090Z,1.60
2019-03-05T13:14:05.778Z,1.20
2019-03-05T13:16:22.203Z,1.85
2019-03-05T13:18:49.370Z,0.90
2019-03-05T13:21:18.487Z,1.22
2019-03-05T13:23:45.494Z,1.20
2019-03-05T13:26:12.810Z,1.30
2019-03-05T13:28:40.604Z,1.05
2019-03-05T13:31:09.328Z,1.00
2019-03-05T13:33:38.000Z,0.57
2019-03-05T13:36:11.962Z,0.90
2019-03-05T13:38:34.624Z,1.02
2019-03-05T13:41:01.794Z,1.10
2019-03-05T13:43:28.961Z,1.52
2019-03-05T13:45:56.498Z,1.27
2019-03-05T13:48:40.410Z,0.98
2019-03-05T13:51:25.658Z,0.95
2019-03-05T13:54:01.263Z,0.70
2019-03-05T13:56:44.666Z,1.10
2019-03-05T13:59:13.478Z,1.25
2019-03-05T14:01:40.834Z,1.25
2019-03-05T14:04:16.721Z,1.55
2019-03-05T14:06:47.982Z,1.20
2019-03-05T14:09:15.403Z,1.12
2019-03-05T14:11:46.327Z,1.20
2019-03-05T14:14:15.065Z,0.85
2019-03-05T14:16:42.344Z,1.00
2019-03-05T14:19:09.613Z,1.00
2019-03-05T14:21:36.859Z,1.10
2019-03-05T14:24:04.023Z,1.25
2019-03-05T14:26:31.237Z,1.05
2019-03-05T14:28:58.472Z,1.47
2019-03-05T14:31:25.722Z,1.50
2019-03-05T14:33:52.963Z,1.00
2019-03-05T14:36:20.235Z,1.10
2019-03-05T14:38:47.455Z,0.93
2019-03-05T14:41:14.721Z,1.17
2019-03-05T14:43:42.195Z,1.15
2019-03-05T14:46:09.891Z,1.52
2019-03-05T14:48:37.159Z,1.00
2019-03-05T14:51:04.486Z,1.20
2019-03-05T14:53:31.728Z,1.60
2019-03-05T14:55:59.246Z,1.32
2019-03-05T14:58:26.420Z,1.67
2019-03-05T15:00:54.885Z,1.47
2019-03-05T15:03:22.348Z,1.50
2019-03-05T15:05:49.568Z,0.88
2019-03-05T15:08:16.863Z,0.95
2019-03-05T15:10:44.105Z,1.27
2019-03-05T15:13:16.213Z,1.20
2019-03-05T15:15:40.441Z,0.93
2019-03-05T15:18:07.745Z,1.10
2019-03-05T15:20:35.030Z,1.35
2019-03-05T15:23:02.293Z,1.07
2019-03-05T15:25:29.625Z,1.15
2019-03-05T15:27:56.845Z,1.27
2019-03-05T15:30:25.069Z,1.77
2019-03-05T15:32:52.384Z,1.27
2019-03-05T15:35:19.832Z,1.02
2019-03-05T15:37:47.514Z,0.80
2019-03-05T15:40:16.398Z,1.60
2019-03-05T15:42:43.718Z,1.60
2019-03-05T15:45:12.347Z,0.80
2019-03-05T15:47:42.559Z,1.10
2019-03-05T15:50:10.180Z,1.22
2019-03-05T15:52:37.462Z,1.00
2019-03-05T15:55:06.443Z,1.25
2019-03-05T15:57:33.646Z,1.07
2019-03-05T16:00:00.818Z,0.90
2019-03-05T16:02:28.004Z,1.27
2019-03-05T16:04:55.217Z,0.80
2019-03-05T16:07:22.494Z,0.75
2019-03-05T16:09:50.965Z,1.10
2019-03-05T16:12:18.412Z,0.98
2019-03-05T16:14:47.530Z,0.80
2019-03-05T16:17:14.477Z,1.27
2019-03-05T16:19:41.704Z,0.80
2019-03-05T16:22:08.878Z,1.00
2019-03-05T16:24:37.536Z,0.72
2019-03-05T16:27:04.912Z,0.70
2019-03-05T16:29:32.160Z,1.00
2019-03-05T16:32:04.035Z,1.47
2019-03-05T16:34:38.831Z,1.00
2019-03-05T16:37:07.766Z,1.15
2019-03-05T16:39:36.594Z,1.35
2019-03-05T16:42:07.998Z,1.55
2019-03-05T16:44:42.855Z,1.42
2019-03-05T16:47:27.808Z,1.05
2019-03-05T16:49:59.218Z,0.62
2019-03-05T16:52:40.265Z,0.88
2019-03-05T16:55:12.678Z,1.07
2019-03-05T16:57:56.389Z,0.78
2019-03-05T17:00:48.966Z,1.50
2019-03-05T17:03:16.270Z,1.00
2019-03-05T17:05:45.082Z,0.90
2019-03-05T17:08:16.374Z,1.35
2019-03-05T17:10:54.445Z,1.00
2019-03-05T17:13:21.751Z,1.45
2019-03-05T17:15:48.964Z,0.90
2019-03-05T17:18:16.130Z,1.20
2019-03-05T17:20:43.412Z,1.07
2019-03-05T17:23:10.657Z,0.72
2019-03-05T17:25:37.879Z,1.00
2019-03-05T17:28:05.123Z,1.30
2019-03-05T17:30:32.307Z,0.90
2019-03-05T17:32:59.496Z,1.32
